createdAt,value
2019-03-05T00:01:25.542Z,84.20
2019-03-05T00:03:54.997Z,84.00
2019-03-05T00:06:24.444Z,83.50
2019-03-05T00:08:53.852Z,83.30
2019-03-05T00:11:23.336Z,82.90
2019-03-05T00:13:52.744Z,82.50
2019-03-05T00:16:22.274Z,82.20
2019-03-05T00:18:51.730Z,81.80
2019-03-05T00:21:21.109Z,81.60
2019-03-05T00:24:00.488Z,81.20
2019-03-05T00:26:32.852Z,81.10
2019-03-05T00:29:30.165Z,80.80
2019-03-05T00:31:59.905Z,80.60
2019-03-05T00:34:41.100Z,80.40
2019-03-05T00:37:22.789Z,80.20
2019-03-05T00:40:24.346Z,80.70
2019-03-05T00:43:23.063Z,80.60
2019-03-05T00:46:19.660Z,80.60
2019-03-05T00:49:00.654Z,81.20
2019-03-05T00:52:01.127Z,80.90
2019-03-05T00:55:17.923Z,80.40
2019-03-05T00:58:18.473Z,80.30
2019-03-05T01:01:09.595Z,79.90
2019-03-05T01:04:35.308Z,79.20
2019-03-05T01:07:04.829Z,78.50
2019-03-05T01:09:34.252Z,78.40
2019-03-05T01:12:03.611Z,78.30
2019-03-05T01:14:34.092Z,78.20
2019-03-05T01:17:03.935Z,78.00
2019-03-05T01:19:33.355Z,77.90
2019-03-05T01:22:02.804Z,77.80
2019-03-05T01:24:32.318Z,77.70
2019-03-05T01:27:01.631Z,77.60
2019-03-05T01:29:30.960Z,77.50
2019-03-05T01:32:17.224Z,77.40
2019-03-05T01:35:05.479Z,77.40
2019-03-05T01:37:34.941Z,77.20
2019-03-05T01:40:25.053Z,77.10
2019-03-05T01:42:54.483Z,76.70
2019-03-05T01:45:23.847Z,76.10
2019-03-05T01:47:53.244Z,76.10
2019-03-05T01:50:22.573Z,76.80
2019-03-05T01:52:52.005Z,74.30
2019-03-05T01:55:21.405Z,74.20
2019-03-05T01:57:50.839Z,73.90
2019-03-05T02:00:20.310Z,74.40
2019-03-05T02:02:49.638Z,75.20
2019-03-05T02:05:19.783Z,75.40
2019-03-05T02:07:49.552Z,76.00
2019-03-05T02:10:22.156Z,75.60
2019-03-05T02:12:51.561Z,75.80
2019-03-05T02:15:21.108Z,75.80
2019-03-05T02:17:50.514Z,76.00
2019-03-05T02:20:21.700Z,76.00
2019-03-05T02:23:16.594Z,76.00
2019-03-05T02:25:59.310Z,75.50
2019-03-05T02:29:02.434Z,73.70
2019-03-05T02:32:11.791Z,73.40
2019-03-05T02:35:17.914Z,73.10
2019-03-05T02:38:18.643Z,72.70
2019-03-05T02:41:18.643Z,71.90
2019-03-05T02:44:18.286Z,71.90
2019-03-05T02:47:40.909Z,71.80
2019-03-05T02:50:42.364Z,71.70
2019-03-05T02:53:39.027Z,71.80
2019-03-05T02:56:48.439Z,71.60
2019-03-05T02:59:16.249Z,72.30
2019-03-05T03:02:07.661Z,75.40
2019-03-05T03:04:40.977Z,74.90
2019-03-05T03:07:10.365Z,75.60
2019-03-05T03:10:16.872Z,76.00
2019-03-05T03:12:46.339Z,75.70
2019-03-05T03:15:17.456Z,75.20
2019-03-05T03:17:47.779Z,74.60
2019-03-05T03:20:18.955Z,73.70
2019-03-05T03:22:48.515Z,73.50
2019-03-05T03:25:19.671Z,73.50
2019-03-05T03:27:49.047Z,74.50
2019-03-05T03:30:21.797Z,73.60
2019-03-05T03:32:51.265Z,73.40
2019-03-05T03:35:20.801Z,72.90
2019-03-05T03:37:50.260Z,73.00
2019-03-05T03:40:21.393Z,73.50
2019-03-05T03:42:50.879Z,73.90
2019-03-05T03:45:22.284Z,74.20
2019-03-05T03:47:51.752Z,74.50
2019-03-05T03:50:21.209Z,75.70
2019-03-05T03:52:50.574Z,75.70
2019-03-05T03:55:20.014Z,75.30
2019-03-05T03:57:49.613Z,76.20
2019-03-05T04:00:21.140Z,75.90
2019-03-05T04:02:50.618Z,75.80
2019-03-05T04:05:20.053Z,75.80
2019-03-05T04:07:49.530Z,75.70
2019-03-05T04:10:18.948Z,75.70
2019-03-05T04:12:48.365Z,76.00
2019-03-05T04:15:19.472Z,76.50
2019-03-05T04:17:48.847Z,76.60
2019-03-05T04:20:34.338Z,77.00
2019-03-05T04:23:03.670Z,77.70
2019-03-05T04:25:32.998Z,78.70
2019-03-05T04:28:02.336Z,79.20
2019-03-05T04:30:31.678Z,81.20
2019-03-05T04:33:01.081Z,83.70
2019-03-05T04:35:30.428Z,84.90
2019-03-05T04:37:59.857Z,84.80
2019-03-05T04:40:29.279Z,85.20
2019-03-05T04:42:58.681Z,85.10
2019-03-05T04:45:35.906Z,85.40
2019-03-05T04:48:05.565Z,85.40
2019-03-05T04:50:40.066Z,85.60
2019-03-05T04:53:09.493Z,85.50
2019-03-05T04:55:38.942Z,85.40
2019-03-05T04:58:08.443Z,85.10
2019-03-05T05:00:37.866Z,84.90
2019-03-05T05:03:07.322Z,84.80
2019-03-05T05:05:36.662Z,84.60
2019-03-05T05:08:06.230Z,84.30
2019-03-05T05:10:35.664Z,84.10
2019-03-05T05:13:05.109Z,84.30
2019-03-05T05:15:34.526Z,84.30
2019-03-05T05:18:04.522Z,84.30
2019-03-05T05:20:33.964Z,83.60
2019-03-05T05:23:03.474Z,83.90
2019-03-05T05:25:32.925Z,83.70
2019-03-05T05:28:02.369Z,84.00
2019-03-05T05:30:39.570Z,84.20
2019-03-05T05:33:09.237Z,84.10
2019-03-05T05:35:38.606Z,84.20
2019-03-05T05:38:08.018Z,84.00
2019-03-05T05:40:39.075Z,84.10
2019-03-05T05:43:11.285Z,84.20
2019-03-05T05:45:45.722Z,84.60
2019-03-05T05:48:15.362Z,84.50
2019-03-05T05:50:44.866Z,84.50
2019-03-05T05:53:15.274Z,84.60
2019-03-05T05:55:44.604Z,85.00
2019-03-05T05:58:14.009Z,85.20
2019-03-05T06:00:54.569Z,85.70
2019-03-05T06:03:23.975Z,85.80
2019-03-05T06:05:53.306Z,85.80
2019-03-05T06:08:22.668Z,85.70
2019-03-05T06:10:53.170Z,85.30
2019-03-05T06:13:22.906Z,85.20
2019-03-05T06:15:52.383Z,85.20
2019-03-05T06:18:21.767Z,85.00
2019-03-05T06:20:51.193Z,84.50
2019-03-05T06:23:20.655Z,83.80
2019-03-05T06:25:50.098Z,83.40
2019-03-05T06:28:19.538Z,82.90
2019-03-05T06:30:49.005Z,82.30
2019-03-05T06:33:18.414Z,82.50
2019-03-05T06:35:47.775Z,81.20
2019-03-05T06:38:17.227Z,81.20
2019-03-05T06:40:46.656Z,81.10
2019-03-05T06:43:16.093Z,80.50
2019-03-05T06:45:45.456Z,80.10
2019-03-05T06:48:14.820Z,79.10
2019-03-05T06:50:44.219Z,78.80
2019-03-05T06:53:13.620Z,78.80
2019-03-05T06:55:43.046Z,78.60
2019-03-05T06:58:12.415Z,78.50
2019-03-05T07:00:41.727Z,77.90
2019-03-05T07:03:11.102Z,78.10
2019-03-05T07:06:16.346Z,77.90
2019-03-05T07:08:56.168Z,78.00
2019-03-05T07:12:15.641Z,77.90
2019-03-05T07:15:17.278Z,77.60
2019-03-05T07:17:51.025Z,76.10
2019-03-05T07:21:13.517Z,75.00
2019-03-05T07:24:39.521Z,72.90
2019-03-05T07:27:09.978Z,71.70
2019-03-05T07:29:40.037Z,71.30
2019-03-05T07:32:09.423Z,70.70
2019-03-05T07:34:40.960Z,69.60
2019-03-05T07:37:12.402Z,69.30
2019-03-05T07:39:41.855Z,68.70
2019-03-05T07:42:11.903Z,68.50
2019-03-05T07:44:41.280Z,68.20
2019-03-05T07:47:10.645Z,67.80
2019-03-05T07:49:44.081Z,66.60
2019-03-05T07:52:11.189Z,65.70
2019-03-05T07:54:40.585Z,65.30
2019-03-05T07:57:09.906Z,65.90
2019-03-05T07:59:39.226Z,66.50
2019-03-05T08:02:08.598Z,65.60
2019-03-05T08:04:38.008Z,65.40
2019-03-05T08:07:07.548Z,65.60
2019-03-05T08:09:40.779Z,65.90
2019-03-05T08:12:51.570Z,67.10
2019-03-05T08:16:01.949Z,68.40
2019-03-05T08:18:23.133Z,68.80
2019-03-05T08:20:52.547Z,69.10
2019-03-05T08:23:21.903Z,71.00
2019-03-05T08:25:51.259Z,71.10
2019-03-05T08:28:20.965Z,71.20
2019-03-05T08:30:50.274Z,70.60
2019-03-05T08:33:19.662Z,71.10
2019-03-05T08:35:49.136Z,71.30
2019-03-05T08:38:18.484Z,69.50
2019-03-05T08:40:47.909Z,69.70
2019-03-05T08:43:17.291Z,68.00
2019-03-05T08:45:46.722Z,68.30
2019-03-05T08:48:16.127Z,67.80
2019-03-05T08:50:45.530Z,66.10
2019-03-05T08:53:14.934Z,67.70
2019-03-05T08:55:44.309Z,69.50
2019-03-05T08:58:13.669Z,70.80
2019-03-05T09:00:43.044Z,71.00
2019-03-05T09:03:12.400Z,71.20
2019-03-05T09:05:41.787Z,70.20
2019-03-05T09:08:11.263Z,69.10
2019-03-05T09:10:40.630Z,68.40
2019-03-05T09:13:10.364Z,68.20
2019-03-05T09:15:39.840Z,69.90
2019-03-05T09:18:09.213Z,72.60
2019-03-05T09:20:38.637Z,73.50
2019-03-05T09:23:08.009Z,72.90
2019-03-05T09:25:37.339Z,73.40
2019-03-05T09:28:07.435Z,74.00
2019-03-05T09:30:37.206Z,73.60
2019-03-05T09:33:06.706Z,73.50
2019-03-05T09:35:37.061Z,75.40
2019-03-05T09:38:06.427Z,76.30
2019-03-05T09:40:35.961Z,74.60
2019-03-05T09:43:05.407Z,74.80
2019-03-05T09:45:34.850Z,76.10
2019-03-05T09:48:04.393Z,76.90
2019-03-05T09:50:33.767Z,77.20
2019-03-05T09:53:04.043Z,71.30
2019-03-05T09:55:36.394Z,69.90
2019-03-05T09:58:08.667Z,66.10
2019-03-05T10:00:38.626Z,67.20
2019-03-05T10:03:08.565Z,68.90
2019-03-05T10:05:37.947Z,70.50
2019-03-05T10:08:07.504Z,70.70
2019-03-05T10:10:36.976Z,73.40
2019-03-05T10:13:06.847Z,74.10
2019-03-05T10:15:36.215Z,73.40
2019-03-05T10:18:12.792Z,73.00
2019-03-05T10:20:37.135Z,73.00
2019-03-05T10:23:06.624Z,72.50
2019-03-05T10:25:36.024Z,72.40
2019-03-05T10:28:05.874Z,73.10
2019-03-05T10:30:36.761Z,74.10
2019-03-05T10:33:06.682Z,74.90
2019-03-05T10:35:36.079Z,74.60
2019-03-05T10:38:07.045Z,74.60
2019-03-05T10:40:38.817Z,74.40
2019-03-05T10:43:09.511Z,75.80
2019-03-05T10:45:40.843Z,75.40
2019-03-05T10:48:10.239Z,72.70
2019-03-05T10:50:39.557Z,68.60
2019-03-05T10:53:08.979Z,69.20
2019-03-05T10:55:39.184Z,67.30
2019-03-05T10:58:10.062Z,67.30
2019-03-05T11:00:42.850Z,66.40
2019-03-05T11:03:12.889Z,66.00
2019-03-05T11:05:43.475Z,66.60
2019-03-05T11:08:18.428Z,66.80
2019-03-05T11:10:47.985Z,68.00
2019-03-05T11:13:17.336Z,68.90
2019-03-05T11:15:49.320Z,67.10
2019-03-05T11:18:28.956Z,66.20
2019-03-05T11:20:49.766Z,67.50
2019-03-05T11:23:19.183Z,67.30
2019-03-05T11:25:48.661Z,66.00
2019-03-05T11:28:18.099Z,66.50
2019-03-05T11:30:47.686Z,66.60
2019-03-05T11:33:17.042Z,66.40
2019-03-05T11:35:46.473Z,64.40
2019-03-05T11:38:15.996Z,64.80
2019-03-05T11:40:45.492Z,64.60
2019-03-05T11:43:16.765Z,66.10
2019-03-05T11:45:46.509Z,66.90
2019-03-05T11:48:16.803Z,65.00
2019-03-05T11:50:46.544Z,64.70
2019-03-05T11:53:15.934Z,63.50
2019-03-05T11:55:45.394Z,64.20
2019-03-05T11:58:15.053Z,66.60
2019-03-05T12:01:03.409Z,65.80
2019-03-05T12:03:32.822Z,67.00
2019-03-05T12:06:02.219Z,66.10
2019-03-05T12:08:31.699Z,65.60
2019-03-05T12:11:01.041Z,64.30
2019-03-05T12:13:30.405Z,66.10
2019-03-05T12:16:01.827Z,64.60
2019-03-05T12:18:31.279Z,64.50
2019-03-05T12:21:00.755Z,64.50
2019-03-05T12:23:30.205Z,64.60
2019-03-05T12:25:59.594Z,64.40
2019-03-05T12:28:29.012Z,63.20
2019-03-05T12:30:58.370Z,64.10
2019-03-05T12:33:27.795Z,62.90
2019-03-05T12:35:57.223Z,61.50
2019-03-05T12:38:26.698Z,61.80
2019-03-05T12:40:56.106Z,62.40
2019-03-05T12:43:25.455Z,61.60
2019-03-05T12:45:54.906Z,60.90
2019-03-05T12:48:24.252Z,60.50
2019-03-05T12:51:12.771Z,61.20
2019-03-05T12:53:42.227Z,61.10
2019-03-05T12:56:11.615Z,60.40
2019-03-05T12:58:41.066Z,57.50
2019-03-05T13:01:10.620Z,57.50
2019-03-05T13:03:40.078Z,55.60
2019-03-05T13:06:09.535Z,55.30
2019-03-05T13:08:38.965Z,56.10
2019-03-05T13:11:09.378Z,56.00
2019-03-05T13:13:39.540Z,55.30
2019-03-05T13:16:08.971Z,53.80
2019-03-05T13:18:38.420Z,51.50
2019-03-05T13:21:08.735Z,49.30
2019-03-05T13:23:38.533Z,51.40
2019-03-05T13:26:09.196Z,52.20
2019-03-05T13:28:40.481Z,53.10
2019-03-05T13:31:10.049Z,51.00
2019-03-05T13:33:41.923Z,49.00
2019-03-05T13:36:12.508Z,44.80
2019-03-05T13:38:45.346Z,45.80
2019-03-05T13:41:15.744Z,45.50
2019-03-05T13:43:45.129Z,44.70
2019-03-05T13:46:14.578Z,43.60
2019-03-05T13:49:25.288Z,43.30
2019-03-05T13:52:36.023Z,42.50
2019-03-05T13:56:00.439Z,44.10
2019-03-05T13:59:35.425Z,43.30
2019-03-05T14:02:06.741Z,45.70
2019-03-05T14:04:59.644Z,45.30
2019-03-05T14:08:09.046Z,44.60
2019-03-05T14:10:38.504Z,41.40
2019-03-05T14:13:07.886Z,41.80
2019-03-05T14:15:37.906Z,41.20
2019-03-05T14:18:07.809Z,40.90
2019-03-05T14:20:37.251Z,41.00
2019-03-05T14:23:06.670Z,40.40
2019-03-05T14:25:36.121Z,40.10
2019-03-05T14:28:05.561Z,40.90
2019-03-05T14:30:35.538Z,40.90
2019-03-05T14:33:04.943Z,41.60
2019-03-05T14:35:34.602Z,39.30
2019-03-05T14:38:04.365Z,39.40
2019-03-05T14:40:33.829Z,39.60
2019-03-05T14:43:05.451Z,37.10
2019-03-05T14:45:36.680Z,36.40
2019-03-05T14:48:06.591Z,37.30
2019-03-05T14:50:36.421Z,38.10
2019-03-05T14:53:06.071Z,36.40
2019-03-05T14:55:35.525Z,36.50
2019-03-05T14:58:05.364Z,35.70
2019-03-05T15:00:34.910Z,35.30
2019-03-05T15:03:04.371Z,35.10
2019-03-05T15:05:33.813Z,35.00
2019-03-05T15:08:03.245Z,36.00
2019-03-05T15:10:32.670Z,36.40
2019-03-05T15:13:02.141Z,36.30
2019-03-05T15:15:31.968Z,37.10
2019-03-05T15:18:01.379Z,35.50
2019-03-05T15:20:30.822Z,35.70
2019-03-05T15:23:00.307Z,36.40
2019-03-05T15:25:29.703Z,37.30
2019-03-05T15:27:59.079Z,36.10
2019-03-05T15:30:29.241Z,36.20
2019-03-05T15:32:59.014Z,35.70
2019-03-05T15:35:28.446Z,36.10
2019-03-05T15:37:57.895Z,37.00
2019-03-05T15:40:27.336Z,36.90
2019-03-05T15:42:56.766Z,38.30
2019-03-05T15:45:26.283Z,38.90
2019-03-05T15:47:55.787Z,36.50
2019-03-05T15:50:25.206Z,36.00
2019-03-05T15:52:54.673Z,35.50
2019-03-05T15:55:24.074Z,35.50
2019-03-05T15:57:53.435Z,35.30
2019-03-05T16:00:27.507Z,35.40
2019-03-05T16:02:56.939Z,35.70
2019-03-05T16:05:26.865Z,36.90
2019-03-05T16:07:56.344Z,37.60
2019-03-05T16:10:25.873Z,38.60
2019-03-05T16:12:55.231Z,39.20
2019-03-05T16:15:24.678Z,39.20
2019-03-05T16:17:54.482Z,38.40
2019-03-05T16:20:25.849Z,39.30
2019-03-05T16:22:56.710Z,39.30
2019-03-05T16:25:26.338Z,37.90
2019-03-05T16:27:55.776Z,37.80
2019-03-05T16:30:47.038Z,37.70
2019-03-05T16:33:38.614Z,38.80
2019-03-05T16:36:29.264Z,39.60
2019-03-05T16:39:27.273Z,39.70
2019-03-05T16:42:11.023Z,38.70
2019-03-05T16:45:08.418Z,39.10
2019-03-05T16:48:02.564Z,39.90
2019-03-05T16:50:49.271Z,39.80
2019-03-05T16:53:44.134Z,39.80
2019-03-05T16:56:29.323Z,39.80
2019-03-05T16:59:27.849Z,40.00
2019-03-05T17:02:16.308Z,40.40
2019-03-05T17:05:07.673Z,40.90
2019-03-05T17:08:05.094Z,41.00
2019-03-05T17:10:55.994Z,41.10
2019-03-05T17:13:25.415Z,41.40
2019-03-05T17:15:54.827Z,41.50
2019-03-05T17:18:24.206Z,41.80
2019-03-05T17:20:54.044Z,41.70
2019-03-05T17:23:23.470Z,41.80
2019-03-05T17:25:52.915Z,42.00
2019-03-05T17:28:22.321Z,42.00
2019-03-05T17:30:51.754Z,42.20
2019-03-05T17:33:21.230Z,42.40
2019-03-05T17:35:50.748Z,42.30
2019-03-05T17:38:20.082Z,42.60
2019-03-05T17:40:49.523Z,42.70
2019-03-05T17:43:18.900Z,42.70
2019-03-05T17:45:48.263Z,43.00
2019-03-05T17:48:17.688Z,43.20
2019-03-05T17:50:47.218Z,43.40
2019-03-05T17:53:16.598Z,43.70
2019-03-05T17:55:48.304Z,44.00
2019-03-05T17:58:17.754Z,44.30
2019-03-05T18:00:48.903Z,44.50
2019-03-05T18:03:18.287Z,44.60
2019-03-05T18:05:50.818Z,44.60
2019-03-05T18:08:20.477Z,44.70
2019-03-05T18:10:50.530Z,44.90
2019-03-05T18:13:22.788Z,45.00
2019-03-05T18:15:52.733Z,45.00
2019-03-05T18:18:22.259Z,45.20
2019-03-05T18:20:51.957Z,45.30
2019-03-05T18:23:21.847Z,45.40
2019-03-05T18:25:51.469Z,45.60
2019-03-05T18:28:21.034Z,45.70
2019-03-05T18:30:50.763Z,45.80
2019-03-05T18:33:20.430Z,45.90
2019-03-05T18:35:50.380Z,45.90
2019-03-05T18:38:20.541Z,46.00
2019-03-05T18:40:50.904Z,46.30
2019-03-05T18:43:20.807Z,46.30
2019-03-05T18:45:50.819Z,46.50
2019-03-05T18:48:20.976Z,46.50
2019-03-05T18:50:52.912Z,46.60
2019-03-05T18:53:23.038Z,46.70
2019-03-05T18:55:55.333Z,46.90
2019-03-05T18:58:25.239Z,47.00
2019-03-05T19:00:55.188Z,47.10
2019-03-05T19:03:25.773Z,47.30
2019-03-05T19:05:55.954Z,47.00
2019-03-05T19:08:26.174Z,47.00
2019-03-05T19:10:56.205Z,47.00
2019-03-05T19:13:26.824Z,47.20
2019-03-05T19:16:00.457Z,47.30
2019-03-05T19:18:30.422Z,47.20
2019-03-05T19:21:00.670Z,47.30
2019-03-05T19:23:31.006Z,47.40
2019-03-05T19:26:01.206Z,47.50
2019-03-05T19:28:31.171Z,47.50
2019-03-05T19:31:01.394Z,47.50
2019-03-05T19:33:31.619Z,48.20
2019-03-05T19:36:01.819Z,47.80
2019-03-05T19:38:31.898Z,48.30
2019-03-05T19:41:02.072Z,48.70
2019-03-05T19:43:32.428Z,49.60
2019-03-05T19:46:02.625Z,50.30
2019-03-05T19:48:32.817Z,51.20
2019-03-05T19:51:05.850Z,51.70
2019-03-05T19:53:35.982Z,53.20
2019-03-05T19:56:06.226Z,53.70
2019-03-05T19:58:36.712Z,54.40
2019-03-05T20:01:12.703Z,55.10
2019-03-05T20:03:43.132Z,57.10
2019-03-05T20:06:14.582Z,58.70
2019-03-05T20:08:56.938Z,58.30
2019-03-05T20:11:30.694Z,58.50
2019-03-05T20:14:01.031Z,58.50
2019-03-05T20:16:31.416Z,59.00
2019-03-05T20:19:01.606Z,58.90
2019-03-05T20:21:32.135Z,58.90
2019-03-05T20:24:02.307Z,58.90
2019-03-05T20:26:32.532Z,58.30
2019-03-05T20:29:06.084Z,58.20
2019-03-05T20:31:36.250Z,58.40
2019-03-05T20:34:06.505Z,58.30
2019-03-05T20:36:36.597Z,58.00
2019-03-05T20:39:07.611Z,57.90
2019-03-05T20:41:37.846Z,57.60
2019-03-05T20:44:07.939Z,57.30
2019-03-05T20:46:38.199Z,56.90
2019-03-05T20:49:08.214Z,56.70
2019-03-05T20:51:38.236Z,56.40
2019-03-05T20:54:08.480Z,56.30
2019-03-05T20:56:38.771Z,56.10
2019-03-05T20:59:08.599Z,55.90
2019-03-05T21:01:38.739Z,55.60
2019-03-05T21:04:08.984Z,55.10
2019-03-05T21:06:38.782Z,55.00
2019-03-05T21:09:19.815Z,54.80
2019-03-05T21:11:49.682Z,54.40
2019-03-05T21:14:19.738Z,54.20
2019-03-05T21:16:49.863Z,54.20
2019-03-05T21:19:20.070Z,54.10
2019-03-05T21:21:49.601Z,54.00
2019-03-05T21:24:19.389Z,54.00
2019-03-05T21:26:49.169Z,54.00
2019-03-05T21:29:18.886Z,53.30
2019-03-05T21:31:49.948Z,53.10
2019-03-05T21:34:20.119Z,52.60
2019-03-05T21:36:49.935Z,52.50
2019-03-05T21:39:20.112Z,52.40
2019-03-05T21:41:49.565Z,52.30
2019-03-05T21:44:19.099Z,51.60
2019-03-05T21:46:48.562Z,51.80
2019-03-05T21:49:21.373Z,52.30
2019-03-05T21:51:50.816Z,52.30
2019-03-05T21:54:20.282Z,52.30
2019-03-05T21:56:49.688Z,52.20
2019-03-05T21:59:19.601Z,52.50
2019-03-05T22:01:49.037Z,53.10
2019-03-05T22:04:18.478Z,53.30
2019-03-05T22:06:47.901Z,53.30
2019-03-05T22:09:17.389Z,53.50
2019-03-05T22:11:46.856Z,53.50
2019-03-05T22:14:16.319Z,53.50
2019-03-05T22:16:45.774Z,53.60
2019-03-05T22:19:15.201Z,53.50
2019-03-05T22:21:44.605Z,53.50
2019-03-05T22:24:14.046Z,53.70
2019-03-05T22:26:43.408Z,53.60
2019-03-05T22:29:13.692Z,53.60
2019-03-05T22:31:43.157Z,53.90
2019-03-05T22:34:12.609Z,54.00
2019-03-05T22:36:42.087Z,54.20
2019-03-05T22:39:11.604Z,54.00
2019-03-05T22:41:41.127Z,54.00
2019-03-05T22:44:10.557Z,53.80
2019-03-05T22:46:40.467Z,53.60
2019-03-05T22:49:09.979Z,53.60
2019-03-05T22:51:39.426Z,54.20
2019-03-05T22:54:08.867Z,53.60
2019-03-05T22:56:38.289Z,53.50
2019-03-05T22:59:08.944Z,53.30
2019-03-05T23:01:41.338Z,53.10
2019-03-05T23:04:12.713Z,52.90
2019-03-05T23:06:42.974Z,52.90
2019-03-05T23:09:21.195Z,52.90
2019-03-05T23:11:50.642Z,52.90
2019-03-05T23:14:20.093Z,52.90
2019-03-05T23:16:49.613Z,52.70
2019-03-05T23:19:19.244Z,52.50
2019-03-05T23:21:48.706Z,52.30
2019-03-05T23:24:18.289Z,52.20
2019-03-05T23:26:47.753Z,52.10
2019-03-05T23:29:19.298Z,51.90
2019-03-05T23:31:49.186Z,51.90
2019-03-05T23:34:18.862Z,51.80
2019-03-05T23:36:48.302Z,51.80
2019-03-05T23:39:18.653Z,51.70
2019-03-05T23:41:48.108Z,51.60
2019-03-05T23:44:17.589Z,51.40
2019-03-05T23:46:47.086Z,51.30
2019-03-05T23:49:16.568Z,51.00
2019-03-05T23:51:49.212Z,51.00
2019-03-05T23:54:18.690Z,51.20
2019-03-05T23:56:48.129Z,51.40
2019-03-05T23:59:18.895Z,51.00
